Cherokee, IA

10:37 PM CDT on June 22, 2017 (GMT -0500)
Cherokee Municipal

Weather History for KCKP - December, 2012

Change the Weather History Date:

Friday, December 7, 2012

  Actual Average Record
Temperature  
Mean Temperature 34 °F -  
Max Temperature 40 °F 29 °F 52 °F (1963)
Min Temperature 29 °F 12 °F -20 °F (1972)
Degree Days  
Heating Degree Days 30    
Moisture  
Dew Point 24 °F    
Average Humidity 67    
Maximum Humidity 84    
Minimum Humidity 51    
Precipitation  
Precipitation 0.00 in - - ()
Sea Level Pressure  
Sea Level Pressure 29.97 in    
Wind  
Wind Speed 5 mph (NE)    
Max Wind Speed 9 mph    
Max Gust Speed -    
Visibility 8 miles    
Events Snow    
Averages and records for this station are not official NWS values.
T = Trace of Precipitation, MM = Missing Value Source: NWS Daily Summary

Daily Weather History Graph

Daily Weather History Graph

Search for Another Location

Airport or City:

Trip Planner

Search our weather history database for the weather conditions in past years. The results will help you decide how hot, cold, wet, or windy it might be!

Date:

Astronomy

Dec. 07, 2012 Rise Set
Actual Time 7:39 AM CST 4:48 PM CST
Civil Twilight 7:07 AM CST 5:20 PM CST
Nautical Twilight 6:32 AM CST 5:55 PM CST
Astronomical Twilight 5:57 AM CST 6:29 PM CST
Moon 12:52 AM CST (12/7) 12:52 PM CST (12/7)
Length of Visible Light 10h 12m
Length of Day
9h 08m
Last Quarter, 38% of the Moon is Illuminated
Dec 7
Last Quarter
Dec 13
New
Dec 19
First Quarter
Dec 28
Full
Jan 4
Last Quarter

Hourly Weather History & Observations

Time (CST) Temp. Windchill Dew Point Humidity Pressure Visibility Wind Dir Wind Speed Gust Speed Precip Events Conditions
12:15 AM 40.3 °F 38.2 °F 25.7 °F 56% 30.00 in 10.0 mi NNE 3.5 mph - N/A   Overcast
12:35 AM 40.1 °F 36.9 °F 24.1 °F 53% 30.00 in 10.0 mi NE 4.6 mph - N/A   Overcast
12:55 AM 39.4 °F 36.1 °F 23.7 °F 54% 30.00 in 10.0 mi NNE 4.6 mph - N/A   Overcast
1:15 AM 39.2 °F 37.0 °F 23.9 °F 54% 30.00 in 10.0 mi NNE 3.5 mph - N/A   Overcast
1:35 AM 38.3 °F - 24.4 °F 57% 30.00 in 10.0 mi Calm Calm - N/A   Overcast
1:55 AM 38.3 °F - 24.1 °F 57% 30.01 in 10.0 mi Calm Calm - N/A   Overcast
2:15 AM 37.6 °F - 23.9 °F 58% 30.01 in 10.0 mi Calm Calm - N/A   Overcast
2:35 AM 37.4 °F 33.8 °F 23.7 °F 58% 30.01 in 10.0 mi NE 4.6 mph - N/A   Overcast
2:55 AM 37.0 °F 33.3 °F 22.8 °F 56% 30.01 in 10.0 mi NE 4.6 mph - N/A   Overcast
3:15 AM 36.7 °F 32.0 °F 21.9 °F 55% 30.00 in 10.0 mi NE 5.8 mph - N/A   Overcast
3:35 AM 36.1 °F 30.6 °F 21.9 °F 56% 29.99 in 10.0 mi NE 6.9 mph - N/A   Overcast
3:55 AM 35.6 °F 29.9 °F 21.9 °F 58% 29.99 in 10.0 mi NE 6.9 mph - N/A   Overcast
4:15 AM 35.1 °F 27.9 °F 21.0 °F 57% 29.98 in 10.0 mi NE 9.2 mph - N/A   Overcast
4:35 AM 34.9 °F 29.0 °F 19.9 °F 55% 29.97 in 10.0 mi NE 6.9 mph - N/A   Overcast
4:55 AM 34.5 °F 27.3 °F 19.8 °F 55% 29.97 in 10.0 mi NE 9.2 mph - N/A   Overcast
5:15 AM 34.0 °F 26.6 °F 20.3 °F 57% 29.97 in 10.0 mi NNE 9.2 mph - N/A   Overcast
5:35 AM 34.0 °F 28.0 °F 20.3 °F 57% 29.98 in 10.0 mi NNE 6.9 mph - N/A   Overcast
5:55 AM 33.6 °F 26.8 °F 20.7 °F 59% 29.98 in 10.0 mi NNE 8.1 mph - N/A   Overcast
6:15 AM 32.9 °F 27.5 °F 21.0 °F 62% 29.99 in 10.0 mi NNE 5.8 mph - N/A   Overcast
6:35 AM 33.1 °F 26.9 °F 21.0 °F 61% 29.98 in 10.0 mi NE 6.9 mph - N/A   Overcast
6:55 AM 32.2 °F 26.7 °F 21.0 °F 63% 29.98 in 10.0 mi NNE 5.8 mph - N/A   Overcast
7:15 AM 31.6 °F 27.0 °F 21.0 °F 65% 29.96 in 10.0 mi NE 4.6 mph - N/A   Scattered Clouds
7:35 AM 31.1 °F 25.4 °F 21.0 °F 66% 29.97 in 10.0 mi NE 5.8 mph - N/A   Clear
7:55 AM 30.6 °F - 21.0 °F 68% 29.97 in 10.0 mi Calm Calm - N/A   Scattered Clouds
8:15 AM 29.5 °F 24.5 °F 21.0 °F 71% 29.96 in 10.0 mi NE 4.6 mph - N/A   Scattered Clouds
8:35 AM 30.7 °F 27.3 °F 21.7 °F 69% 29.97 in 10.0 mi NE 3.5 mph - N/A   Scattered Clouds
8:55 AM 32.0 °F 26.4 °F 21.9 °F 66% 29.97 in 10.0 mi NE 5.8 mph - N/A   Mostly Cloudy
9:15 AM 32.9 °F 27.5 °F 21.7 °F 64% 29.96 in 10.0 mi NE 5.8 mph - N/A   Overcast
9:35 AM 33.6 °F 28.4 °F 21.2 °F 60% 29.96 in 10.0 mi NE 5.8 mph - N/A   Overcast
9:55 AM 34.7 °F 27.5 °F 20.8 °F 57% 29.95 in 10.0 mi ENE 9.2 mph - N/A   Overcast
10:15 AM 35.1 °F 27.9 °F 20.5 °F 55% 29.97 in 10.0 mi ENE 9.2 mph - N/A   Overcast
10:35 AM 35.2 °F 29.5 °F 20.1 °F 54% 29.97 in 10.0 mi ENE 6.9 mph - N/A   Overcast
10:55 AM 35.4 °F 30.5 °F 19.9 °F 53% 29.99 in 10.0 mi ENE 5.8 mph - N/A   Overcast
11:15 AM 35.6 °F 32.8 °F 19.9 °F 53% 29.99 in 10.0 mi NE 3.5 mph - N/A   Overcast
11:35 AM 36.0 °F 31.1 °F 19.6 °F 51% 29.98 in 10.0 mi NE 5.8 mph - N/A   Overcast
11:55 AM 36.0 °F 31.1 °F 19.8 °F 52% 29.97 in 10.0 mi NE 5.8 mph - N/A   Overcast
12:15 PM 36.5 °F 32.7 °F 19.9 °F 51% 29.97 in 10.0 mi NNE 4.6 mph - N/A   Overcast
12:35 PM 36.5 °F 31.0 °F 20.1 °F 52% 29.97 in 10.0 mi North 6.9 mph - N/A   Overcast
12:55 PM 36.5 °F 31.8 °F 20.3 °F 52% 29.96 in 10.0 mi NNE 5.8 mph - N/A   Overcast
1:15 PM 36.5 °F 30.3 °F 21.0 °F 54% 29.96 in 10.0 mi NNE 8.1 mph - N/A   Overcast
1:35 PM 36.5 °F 33.9 °F 21.9 °F 56% 29.95 in 7.0 mi NNE 3.5 mph - N/A   Overcast
1:55 PM 36.7 °F - 22.1 °F 56% 29.95 in 10.0 mi Calm Calm - N/A   Overcast
2:15 PM 36.7 °F 32.9 °F 21.7 °F 55% 29.95 in 7.0 mi NE 4.6 mph - N/A Snow Light Snow
2:35 PM 34.5 °F 30.4 °F 26.1 °F 71% 29.95 in 1.0 mi NE 4.6 mph - N/A Snow Light Snow
2:55 PM 33.8 °F 29.6 °F 28.0 °F 79% 29.95 in 1.0 mi NE 4.6 mph - N/A Snow Light Snow
3:15 PM 33.4 °F 28.1 °F 28.4 °F 82% 29.95 in 0.8 mi NE 5.8 mph - N/A Snow Light Snow
3:35 PM 33.1 °F 26.9 °F 28.2 °F 82% 29.95 in 0.8 mi ENE 6.9 mph - N/A Snow Light Snow
3:55 PM 33.1 °F 26.9 °F 28.4 °F 83% 29.94 in 1.2 mi ENE 6.9 mph - N/A Snow Light Snow
4:15 PM 32.9 °F 26.7 °F 28.4 °F 84% 29.94 in 1.8 mi ENE 6.9 mph - N/A Snow Light Snow
4:35 PM 32.9 °F 25.3 °F 28.0 °F 82% 29.94 in 2.0 mi ENE 9.2 mph - N/A Snow Light Snow
4:55 PM 32.9 °F 26.7 °F 27.9 °F 82% 29.93 in 3.0 mi East 6.9 mph - N/A Snow Light Snow
5:15 PM 32.9 °F 26.7 °F 27.9 °F 82% 29.93 in 7.0 mi ENE 6.9 mph - N/A   Overcast
5:35 PM 32.9 °F 25.9 °F 27.5 °F 81% 29.93 in 7.0 mi ENE 8.1 mph - N/A   Overcast
5:55 PM 32.9 °F 26.7 °F 27.5 °F 81% 29.94 in 10.0 mi ENE 6.9 mph - N/A   Overcast
6:15 PM 32.9 °F 25.9 °F 27.3 °F 80% 29.94 in 10.0 mi ENE 8.1 mph - N/A   Overcast
6:35 PM 32.7 °F 25.0 °F 26.6 °F 78% 29.94 in 10.0 mi ENE 9.2 mph - N/A   Overcast
7:15 PM 32.5 °F 26.2 °F 26.4 °F 78% 29.95 in 10.0 mi NE 6.9 mph - N/A   Overcast
7:35 PM 32.5 °F 27.1 °F 26.4 °F 78% 29.96 in 7.0 mi NE 5.8 mph - N/A   Overcast
7:55 PM 32.4 °F 27.9 °F 27.0 °F 80% 29.96 in 4.0 mi NNE 4.6 mph - N/A   Overcast
8:15 PM 32.2 °F 28.9 °F 27.1 °F 82% 29.98 in 4.0 mi NNE 3.5 mph - N/A   Overcast
8:35 PM 32.2 °F 27.7 °F 27.5 °F 83% 29.98 in 3.0 mi NNE 4.6 mph - N/A Snow Light Snow
8:55 PM 32.0 °F 27.5 °F 27.3 °F 83% 29.98 in 3.0 mi North 4.6 mph - N/A Snow Light Snow
9:15 PM 32.0 °F 27.5 °F 27.5 °F 83% 29.98 in 2.5 mi NNE 4.6 mph - N/A Snow Light Snow
9:35 PM 32.0 °F 28.7 °F 27.5 °F 83% 29.99 in 3.0 mi NNE 3.5 mph - N/A Snow Light Snow
9:55 PM 32.0 °F - 27.5 °F 83% 29.98 in 4.0 mi Calm Calm - N/A   Haze
10:15 PM 32.0 °F 28.7 °F 27.5 °F 83% 29.98 in 7.0 mi NNE 3.5 mph - N/A   Overcast
10:35 PM 32.0 °F 27.5 °F 27.5 °F 83% 29.98 in 5.0 mi NE 4.6 mph - N/A   Haze
10:55 PM 32.0 °F 28.7 °F 27.1 °F 82% 29.99 in 7.0 mi NNE 3.5 mph - N/A   Overcast
11:15 PM 32.0 °F 27.5 °F 26.8 °F 81% 30.00 in 7.0 mi NE 4.6 mph - N/A   Overcast
11:35 PM 32.2 °F 28.9 °F 26.6 °F 80% 30.00 in 7.0 mi NNE 3.5 mph - N/A   Overcast
11:55 PM 32.0 °F 28.7 °F 26.6 °F 80% 30.00 in 7.0 mi NNE 3.5 mph - N/A   Overcast